Página principal
METAR-TAF:

METAR-TAF

Aeroportos :

Noshahr, Irão

latitude: 36-39-48N, longitude: 051-27-53E, altura: 0 m

Observação actual do tempo

O boletim foi feito há 27 minutos, às 00:00 UTC
Vento calmo
Temperatura 14°C
Humidade 88%
Pressão 1022 hPa
Visibilidade 10 km ou mais
sem nuvens abaixo de 1500 metros e sem cumulonimbus

METAR: OINN 180000Z 00000KT CAVOK 14/12 Q1022

Hora: 03:57 (00:27 UTC)


TAF: em falta

Observações e previsões do tempo de mais de 4000 aeroportos (mensagens METAR e TAF).

As estações disponíveis são os pontos amarelos e vermelhos sobre o mapa.

Mova o rato sobre o mapa para ver o nome da estação.

Depois clique no ponto para visualizar as observações e previsões meteorológicas.

Para alterar o mapa : clique nos botões verdes com uma cruz preta para aumentar o zoom; no botão verde com uma pitada de zoom; ou nas setas verdes para mapas adjacentes.


METAR-TAF: